DTW weather

Detroit Metropolitan Wayne County Airport
Detroit, Michigan, United States

Public forecast

Using degrees Fahrenheit for public forecast. Weather courtesy of forecast.io.

METAR (pilot weather report)

Retrieved 2017/12/15 21:53 UTC (10 minutes ago):

KDTW 152153Z 25012KT 8SM -SN SCT025 BKN040 OVC050 M01/M07 A2984 RMK AO2 SLP113 P0001 T10111072 $

TAF (pilot weather forecast)

Retrieved 2017/12/15 18:33 UTC (3 hours ago):

TAF KDTW 151731Z 1518/1624 24015G22KT 3SM -SHSN OVC020 TEMPO 1518/1521 1SM -SHSN OVC015 FM152100 27012KT 5SM -SHSN OVC015 FM152300 26010KT P6SM -SHSN OVC035 FM160600 24008KT 6SM -SHSN OVC025 FM161100 30006KT 4SM -SHSN OVC020